createdAt,value
2024-02-19T00:00:02.125Z,88.56
2024-02-19T00:02:41.131Z,88.42
2024-02-19T00:05:10.586Z,88.35
2024-02-19T00:07:39.451Z,88.46
2024-02-19T00:10:09.822Z,88.68
2024-02-19T00:12:39.893Z,88.71
2024-02-19T00:15:09.588Z,88.63
2024-02-19T00:17:38.273Z,88.89
2024-02-19T00:20:08.446Z,88.85
2024-02-19T00:22:37.150Z,89.14
2024-02-19T00:25:06.380Z,89.07
2024-02-19T00:27:34.893Z,89.07
2024-02-19T00:30:05.168Z,88.92
2024-02-19T00:32:34.185Z,89.01
2024-02-19T00:35:02.839Z,89.24
2024-02-19T00:37:31.773Z,88.80
2024-02-19T00:40:00.364Z,89.44
2024-02-19T00:42:29.277Z,88.84
2024-02-19T00:44:57.791Z,89.58
2024-02-19T00:47:27.880Z,89.62
2024-02-19T00:49:57.488Z,89.54
2024-02-19T00:52:26.189Z,89.59
2024-02-19T00:54:54.942Z,89.58
2024-02-19T00:57:23.625Z,89.65
2024-02-19T00:59:52.229Z,89.41
2024-02-19T01:02:20.785Z,89.92
2024-02-19T01:04:54.412Z,90.04
2024-02-19T01:07:23.283Z,90.07
2024-02-19T01:09:51.894Z,90.12
2024-02-19T01:12:20.504Z,89.57
2024-02-19T01:14:49.105Z,89.50
2024-02-19T01:17:17.643Z,90.00
2024-02-19T01:19:46.795Z,89.83
2024-02-19T01:22:17.805Z,89.71
2024-02-19T01:24:47.095Z,89.94
2024-02-19T01:27:15.632Z,89.76
2024-02-19T01:29:44.208Z,89.88
2024-02-19T01:32:13.164Z,89.58
2024-02-19T01:34:42.020Z,88.98
2024-02-19T01:37:10.680Z,89.81
2024-02-19T01:39:40.763Z,89.80
2024-02-19T01:42:09.280Z,89.37
2024-02-19T01:44:38.241Z,89.42
2024-02-19T01:47:07.556Z,89.43
2024-02-19T01:49:39.018Z,89.32
2024-02-19T01:52:09.241Z,89.51
2024-02-19T01:54:40.033Z,89.28
2024-02-19T01:57:10.921Z,88.92
2024-02-19T01:59:40.457Z,89.45
2024-02-19T02:02:09.222Z,89.16
2024-02-19T02:04:39.027Z,88.85
2024-02-19T02:07:08.357Z,88.67
2024-02-19T02:09:36.951Z,88.81
2024-02-19T02:12:05.853Z,88.95
2024-02-19T02:14:35.993Z,88.62
2024-02-19T02:17:05.623Z,88.36
2024-02-19T02:19:34.439Z,88.26
2024-02-19T02:22:03.149Z,87.89
2024-02-19T02:24:31.846Z,87.87
2024-02-19T02:27:01.890Z,87.46
2024-02-19T02:29:30.445Z,87.65
2024-02-19T02:31:59.198Z,87.12
2024-02-19T02:34:27.773Z,87.02
2024-02-19T02:36:56.552Z,87.07
2024-02-19T02:39:25.261Z,86.83
2024-02-19T02:41:53.802Z,86.98
2024-02-19T02:44:23.685Z,87.12
2024-02-19T02:46:52.202Z,86.33
2024-02-19T02:49:20.799Z,86.11
2024-02-19T02:51:49.548Z,86.48
2024-02-19T02:54:18.387Z,86.30
2024-02-19T02:56:48.413Z,85.72
2024-02-19T02:59:16.969Z,86.07
2024-02-19T03:01:47.002Z,85.02
2024-02-19T03:04:15.562Z,85.47
2024-02-19T03:06:44.235Z,85.31
2024-02-19T03:09:13.105Z,85.38
2024-02-19T03:11:42.322Z,85.22
2024-02-19T03:14:14.949Z,84.94
2024-02-19T03:16:43.577Z,85.02
2024-02-19T03:19:14.536Z,83.77
2024-02-19T03:21:43.585Z,84.05
2024-02-19T03:24:12.215Z,84.01
2024-02-19T03:26:42.594Z,84.47
2024-02-19T03:29:15.481Z,84.05
2024-02-19T03:31:45.528Z,83.90
2024-02-19T03:34:15.754Z,83.90
2024-02-19T03:36:47.560Z,83.99
2024-02-19T03:39:16.243Z,83.84
2024-02-19T03:41:44.752Z,83.67
2024-02-19T03:44:13.294Z,83.38
2024-02-19T03:46:41.931Z,83.30
2024-02-19T03:49:10.550Z,83.17
2024-02-19T03:51:40.523Z,82.92
2024-02-19T03:54:10.127Z,82.75
2024-02-19T03:56:39.842Z,82.75
2024-02-19T03:59:08.261Z,82.15
2024-02-19T04:01:38.034Z,82.24
2024-02-19T04:04:06.752Z,82.30
2024-02-19T04:06:35.255Z,82.50
2024-02-19T04:09:05.390Z,82.49
2024-02-19T04:11:33.829Z,82.18
2024-02-19T04:14:02.503Z,82.43
2024-02-19T04:16:31.071Z,82.38
2024-02-19T04:18:59.722Z,82.69
2024-02-19T04:21:28.354Z,82.52
2024-02-19T04:23:56.852Z,82.34
2024-02-19T04:28:57.511Z,82.48
2024-02-19T04:31:26.249Z,82.98
2024-02-19T04:33:55.107Z,82.73
2024-02-19T04:36:23.955Z,82.43
2024-02-19T04:38:52.556Z,82.79
2024-02-19T04:41:21.464Z,83.26
2024-02-19T04:43:51.517Z,82.93
2024-02-19T04:46:21.204Z,82.68
2024-02-19T04:48:49.890Z,83.16
2024-02-19T04:51:18.614Z,82.98
2024-02-19T04:53:47.152Z,82.84
2024-02-19T04:56:16.972Z,83.15
2024-02-19T04:58:45.617Z,83.17
2024-02-19T05:01:15.740Z,83.10
2024-02-19T05:03:44.577Z,83.32
2024-02-19T05:06:13.213Z,82.74
2024-02-19T05:08:41.761Z,82.90
2024-02-19T05:11:10.507Z,82.91
2024-02-19T05:13:39.439Z,83.06
2024-02-19T05:16:08.874Z,82.66
2024-02-19T05:18:38.930Z,82.58
2024-02-19T05:21:07.816Z,82.75
2024-02-19T05:23:36.497Z,82.62
2024-02-19T05:26:09.372Z,82.72
2024-02-19T05:28:39.000Z,82.47
2024-02-19T05:31:07.602Z,82.55
2024-02-19T05:33:36.489Z,82.61
2024-02-19T05:36:07.155Z,82.78
2024-02-19T05:38:39.109Z,83.20
2024-02-19T05:41:08.677Z,83.05
2024-02-19T05:43:37.241Z,82.95
2024-02-19T05:46:07.322Z,82.95
2024-02-19T05:48:35.993Z,82.86
2024-02-19T05:51:06.354Z,82.32
2024-02-19T05:53:35.462Z,82.89
2024-02-19T05:56:04.884Z,82.80
2024-02-19T05:58:33.735Z,82.94
2024-02-19T06:01:02.676Z,83.39
2024-02-19T06:03:31.388Z,83.42
2024-02-19T06:06:00.006Z,83.68
2024-02-19T06:08:30.047Z,83.79
2024-02-19T06:10:58.961Z,83.93
2024-02-19T06:13:27.795Z,84.23
2024-02-19T06:15:56.310Z,84.70
2024-02-19T06:18:25.022Z,85.33
2024-02-19T06:20:53.595Z,85.01
2024-02-19T06:23:22.215Z,85.74
2024-02-19T06:25:52.177Z,85.36
2024-02-19T06:28:21.579Z,86.03
2024-02-19T06:30:50.161Z,86.47
2024-02-19T06:33:19.055Z,86.87
2024-02-19T06:35:47.757Z,87.00
2024-02-19T06:38:16.330Z,86.74
2024-02-19T06:40:44.876Z,87.50
2024-02-19T06:43:17.148Z,87.49
2024-02-19T06:45:46.014Z,87.69
2024-02-19T06:48:14.781Z,88.53
2024-02-19T06:50:43.517Z,88.27
2024-02-19T06:53:12.005Z,88.14
2024-02-19T06:55:40.727Z,88.55
2024-02-19T06:58:09.866Z,88.72
2024-02-19T07:00:40.999Z,88.69
2024-02-19T07:03:09.823Z,89.15
2024-02-19T07:05:38.385Z,89.20
2024-02-19T07:08:08.811Z,89.11
2024-02-19T07:10:37.487Z,89.31
2024-02-19T07:13:06.323Z,89.44
2024-02-19T07:15:34.962Z,89.87
2024-02-19T07:18:05.253Z,89.70
2024-02-19T07:20:33.794Z,89.75
2024-02-19T07:23:02.739Z,90.00
2024-02-19T07:25:31.332Z,90.41
2024-02-19T07:27:59.896Z,89.98
2024-02-19T07:30:28.421Z,90.33
2024-02-19T07:32:57.060Z,90.66
2024-02-19T07:35:27.041Z,90.45
2024-02-19T07:37:55.587Z,90.95
2024-02-19T07:40:24.271Z,90.79
2024-02-19T07:42:52.895Z,90.46
2024-02-19T07:45:21.465Z,90.41
2024-02-19T07:47:50.153Z,89.99
2024-02-19T07:50:18.783Z,89.94
2024-02-19T07:52:49.007Z,89.33
2024-02-19T07:55:17.839Z,89.07
2024-02-19T07:57:47.063Z,88.55
2024-02-19T08:00:16.131Z,88.88
2024-02-19T08:02:44.653Z,89.15
2024-02-19T08:05:13.540Z,89.19
2024-02-19T08:07:42.251Z,89.97
2024-02-19T08:10:12.567Z,89.00
2024-02-19T08:12:43.391Z,89.04
2024-02-19T08:15:12.778Z,87.58
2024-02-19T08:17:41.344Z,85.52
2024-02-19T08:20:11.457Z,83.05
2024-02-19T08:22:40.864Z,81.28
2024-02-19T08:25:12.354Z,78.97
2024-02-19T08:27:41.217Z,75.91
2024-02-19T08:30:10.517Z,72.98
2024-02-19T08:32:39.218Z,70.07
2024-02-19T08:35:08.059Z,68.08
2024-02-19T08:37:37.092Z,66.23
2024-02-19T08:40:06.701Z,64.92
2024-02-19T08:42:37.872Z,64.04
2024-02-19T08:45:07.431Z,62.50
2024-02-19T08:47:37.898Z,60.93
2024-02-19T08:50:07.541Z,60.22
2024-02-19T08:52:36.068Z,58.72
2024-02-19T08:55:04.854Z,58.22
2024-02-19T08:57:33.400Z,57.26
2024-02-19T09:00:05.821Z,56.49
2024-02-19T09:02:35.478Z,55.26
2024-02-19T09:05:06.014Z,54.50
2024-02-19T09:07:34.853Z,54.48
2024-02-19T09:10:03.371Z,53.63
2024-02-19T09:12:32.368Z,53.17
2024-02-19T09:15:04.021Z,52.41
2024-02-19T09:17:33.061Z,52.20
2024-02-19T09:20:01.779Z,51.12
2024-02-19T09:22:32.224Z,51.72
2024-02-19T09:25:02.240Z,51.19
2024-02-19T09:27:32.019Z,51.44
2024-02-19T09:30:00.613Z,51.46
2024-02-19T09:32:30.643Z,51.01
2024-02-19T09:34:59.316Z,51.31
2024-02-19T09:37:27.958Z,51.38
2024-02-19T09:39:59.864Z,52.04
2024-02-19T09:42:29.165Z,52.20
2024-02-19T09:44:58.299Z,52.10
2024-02-19T09:47:29.162Z,52.49
2024-02-19T09:50:00.511Z,52.32
2024-02-19T09:52:30.477Z,52.51
2024-02-19T09:55:00.103Z,52.64
2024-02-19T09:57:29.591Z,52.82
2024-02-19T10:00:04.228Z,53.19
2024-02-19T10:02:35.649Z,53.82
2024-02-19T10:05:08.768Z,53.73
2024-02-19T10:07:37.690Z,53.78
2024-02-19T10:10:07.369Z,54.03
2024-02-19T10:12:36.058Z,54.40
2024-02-19T10:15:04.899Z,55.05
2024-02-19T10:17:33.555Z,55.59
2024-02-19T10:20:02.892Z,55.01
2024-02-19T10:22:34.242Z,55.98
2024-02-19T10:25:05.302Z,55.79
2024-02-19T10:27:33.899Z,56.39
2024-02-19T10:30:02.582Z,56.59
2024-02-19T10:32:32.783Z,56.74
2024-02-19T10:35:01.531Z,56.77
2024-02-19T10:37:32.121Z,56.90
2024-02-19T10:40:02.657Z,57.97
2024-02-19T10:42:31.913Z,57.43
2024-02-19T10:45:01.110Z,58.04
2024-02-19T10:47:29.830Z,57.12
2024-02-19T10:50:00.670Z,57.92
2024-02-19T10:52:30.066Z,57.99
2024-02-19T10:55:06.062Z,58.44
2024-02-19T10:57:51.024Z,58.52
2024-02-19T11:00:21.051Z,58.55
2024-02-19T11:02:49.560Z,58.69
2024-02-19T11:05:18.808Z,59.42
2024-02-19T11:07:47.984Z,59.04
2024-02-19T11:10:16.802Z,58.80
2024-02-19T11:12:46.455Z,58.96
2024-02-19T11:15:18.389Z,58.79
2024-02-19T11:17:50.071Z,58.74
2024-02-19T11:20:27.010Z,59.58
2024-02-19T11:23:00.271Z,60.13
2024-02-19T11:25:29.097Z,60.03
2024-02-19T11:27:58.124Z,59.64
2024-02-19T11:30:30.367Z,59.12
2024-02-19T11:33:02.839Z,59.85
2024-02-19T11:35:34.463Z,60.65
2024-02-19T11:38:05.363Z,60.55
2024-02-19T11:40:34.426Z,60.39
2024-02-19T11:43:05.308Z,60.93
2024-02-19T11:45:36.361Z,60.96
2024-02-19T11:48:05.840Z,61.33
2024-02-19T11:50:34.456Z,61.18
2024-02-19T11:53:05.724Z,61.39
2024-02-19T11:55:35.441Z,62.37
2024-02-19T11:58:07.073Z,61.31
2024-02-19T12:00:37.826Z,62.09
2024-02-19T12:03:07.297Z,62.36
2024-02-19T12:05:35.920Z,62.14
2024-02-19T12:08:06.531Z,61.70
2024-02-19T12:10:35.192Z,62.00
2024-02-19T12:13:03.962Z,62.07
2024-02-19T12:15:32.531Z,61.96
2024-02-19T12:18:02.665Z,62.81
2024-02-19T12:20:31.404Z,63.02
2024-02-19T12:22:59.997Z,61.85
2024-02-19T12:25:28.812Z,61.52
2024-02-19T12:27:57.444Z,61.88
2024-02-19T12:30:26.312Z,62.05
2024-02-19T12:32:55.767Z,62.88
2024-02-19T12:35:26.170Z,62.69
2024-02-19T12:37:55.165Z,62.74
2024-02-19T12:40:23.943Z,62.20
2024-02-19T12:42:52.947Z,61.94
2024-02-19T12:45:21.791Z,62.20
2024-02-19T12:47:50.502Z,62.02
2024-02-19T12:50:19.114Z,62.78
2024-02-19T12:52:49.796Z,61.98
2024-02-19T12:55:19.728Z,62.62
2024-02-19T12:57:48.669Z,62.42
2024-02-19T13:00:17.731Z,62.29
2024-02-19T13:02:47.052Z,61.93
2024-02-19T13:05:16.189Z,62.13
2024-02-19T13:07:49.122Z,63.15
2024-02-19T13:10:19.457Z,62.93
2024-02-19T13:12:50.862Z,62.58
2024-02-19T13:15:21.231Z,62.59
2024-02-19T13:17:50.165Z,62.49
2024-02-19T13:20:19.111Z,63.05
2024-02-19T13:22:48.001Z,62.53
2024-02-19T13:25:17.263Z,62.71
2024-02-19T13:27:49.522Z,62.85
2024-02-19T13:30:19.075Z,62.55
2024-02-19T13:32:49.837Z,62.25
2024-02-19T13:35:19.677Z,62.29
2024-02-19T13:37:48.817Z,62.64
2024-02-19T13:40:17.751Z,62.34
2024-02-19T13:42:46.924Z,62.54
2024-02-19T13:45:17.165Z,63.19
2024-02-19T13:48:02.040Z,63.51
2024-02-19T13:50:31.874Z,63.97
2024-02-19T13:53:03.501Z,63.52
2024-02-19T13:55:32.212Z,63.63
2024-02-19T13:58:02.426Z,63.92
2024-02-19T14:00:32.708Z,63.76
2024-02-19T14:03:01.500Z,64.16
2024-02-19T14:05:32.247Z,64.00
2024-02-19T14:08:01.047Z,64.16
2024-02-19T14:10:30.048Z,65.10
2024-02-19T14:12:58.865Z,64.75
2024-02-19T14:15:27.406Z,65.12
2024-02-19T14:17:57.502Z,65.52
2024-02-19T14:20:26.405Z,65.63
2024-02-19T14:22:55.822Z,65.03
2024-02-19T14:25:24.503Z,64.84
2024-02-19T14:27:55.352Z,66.02
2024-02-19T14:30:24.046Z,65.79
2024-02-19T14:32:52.665Z,65.86
2024-02-19T14:35:23.305Z,66.17
2024-02-19T14:37:52.243Z,66.84
2024-02-19T14:40:21.040Z,67.16
2024-02-19T14:42:50.709Z,66.40
2024-02-19T14:45:19.906Z,67.07
2024-02-19T14:47:49.578Z,67.20
2024-02-19T14:50:18.738Z,67.36
2024-02-19T14:52:48.719Z,67.35
2024-02-19T14:55:18.477Z,67.42
2024-02-19T14:57:48.645Z,67.74
2024-02-19T15:00:23.192Z,67.64
2024-02-19T15:02:52.542Z,68.24
2024-02-19T15:05:23.974Z,68.59
2024-02-19T15:07:56.314Z,68.35
2024-02-19T15:10:28.818Z,68.64
2024-02-19T15:13:00.506Z,68.77
2024-02-19T15:15:29.402Z,68.12
2024-02-19T15:17:58.443Z,68.72
2024-02-19T15:20:27.316Z,68.68
2024-02-19T15:22:57.265Z,67.85
2024-02-19T15:25:26.242Z,68.54
2024-02-19T15:27:54.842Z,68.25
2024-02-19T15:30:23.698Z,68.17
2024-02-19T15:32:52.507Z,68.29
2024-02-19T15:35:21.188Z,69.04
2024-02-19T15:37:49.833Z,68.98
2024-02-19T15:40:21.610Z,69.02
2024-02-19T15:42:50.298Z,68.99
2024-02-19T15:45:19.109Z,68.75
2024-02-19T15:47:48.054Z,69.20
2024-02-19T15:50:17.506Z,69.41
2024-02-19T15:52:55.264Z,69.51
2024-02-19T15:55:32.213Z,69.86
2024-02-19T15:58:01.102Z,69.77
2024-02-19T16:00:30.974Z,69.52
2024-02-19T16:02:59.688Z,69.89
2024-02-19T16:05:28.593Z,70.17
2024-02-19T16:07:58.076Z,70.18
2024-02-19T16:10:26.883Z,69.78
2024-02-19T16:12:57.372Z,69.92
2024-02-19T16:15:26.252Z,70.38
2024-02-19T16:17:55.200Z,70.60
2024-02-19T16:20:24.078Z,70.51
2024-02-19T16:22:55.002Z,70.40
2024-02-19T16:25:24.414Z,71.11
2024-02-19T16:27:54.521Z,71.33
2024-02-19T16:30:25.100Z,71.50
2024-02-19T16:32:53.670Z,71.75
2024-02-19T16:35:22.423Z,71.56
2024-02-19T16:37:51.139Z,71.11
2024-02-19T16:40:21.766Z,71.73
2024-02-19T16:42:50.651Z,71.98
2024-02-19T16:45:19.595Z,71.80
2024-02-19T16:47:49.621Z,71.74
2024-02-19T16:50:18.208Z,71.72
2024-02-19T16:52:47.415Z,72.16
2024-02-19T16:55:15.963Z,72.40
2024-02-19T16:57:44.468Z,72.81
2024-02-19T17:00:14.007Z,72.65
2024-02-19T17:02:42.753Z,73.17
2024-02-19T17:05:14.122Z,73.40
2024-02-19T17:07:43.043Z,73.54
2024-02-19T17:10:13.187Z,73.67
2024-02-19T17:12:44.408Z,73.92
2024-02-19T17:15:14.206Z,73.68
2024-02-19T17:17:42.884Z,74.03
2024-02-19T17:20:14.085Z,73.91
2024-02-19T17:22:42.740Z,73.82
2024-02-19T17:25:12.851Z,74.09
2024-02-19T17:27:41.527Z,74.36
2024-02-19T17:30:11.531Z,74.63
2024-02-19T17:32:40.375Z,74.65
2024-02-19T17:35:10.261Z,74.86
2024-02-19T17:37:40.587Z,74.59
2024-02-19T17:40:12.515Z,75.09
2024-02-19T17:42:41.217Z,74.58
2024-02-19T17:45:10.684Z,75.12
2024-02-19T17:47:39.351Z,74.73
2024-02-19T17:50:10.627Z,75.00
2024-02-19T17:52:41.390Z,75.09
2024-02-19T17:55:10.829Z,74.65
2024-02-19T17:57:40.255Z,74.77
2024-02-19T18:00:11.176Z,74.88
2024-02-19T18:02:42.974Z,75.16
2024-02-19T18:05:11.946Z,74.97
2024-02-19T18:07:42.012Z,75.02
2024-02-19T18:10:11.482Z,74.80
2024-02-19T18:12:40.058Z,74.85
2024-02-19T18:15:09.634Z,75.14
2024-02-19T18:17:38.261Z,75.26
2024-02-19T18:20:08.798Z,75.01
2024-02-19T18:22:37.445Z,75.11
2024-02-19T18:25:09.228Z,75.02
2024-02-19T18:27:38.119Z,75.33
2024-02-19T18:30:10.731Z,75.18
2024-02-19T18:32:41.822Z,74.84
2024-02-19T18:35:11.333Z,75.18
2024-02-19T18:37:40.482Z,75.45
2024-02-19T18:40:11.440Z,75.21
2024-02-19T18:42:42.672Z,75.54
2024-02-19T18:45:11.913Z,75.31
2024-02-19T18:47:42.039Z,75.21
2024-02-19T18:50:11.466Z,75.12
2024-02-19T18:52:40.387Z,75.38
2024-02-19T18:55:11.129Z,75.17
2024-02-19T18:57:40.040Z,75.07
2024-02-19T19:00:11.142Z,75.33
2024-02-19T19:02:41.581Z,75.13
2024-02-19T19:05:10.533Z,75.20
2024-02-19T19:07:39.314Z,75.55
2024-02-19T19:10:09.096Z,75.19
2024-02-19T19:12:39.065Z,75.53
2024-02-19T19:15:08.987Z,75.02
2024-02-19T19:17:37.702Z,75.35
2024-02-19T19:20:10.649Z,75.71
2024-02-19T19:22:40.226Z,75.54
2024-02-19T19:25:09.710Z,75.85
2024-02-19T19:27:39.792Z,76.04
2024-02-19T19:30:09.721Z,75.82
2024-02-19T19:32:38.246Z,75.89
2024-02-19T19:35:07.924Z,75.68
2024-02-19T19:37:36.636Z,75.96
2024-02-19T19:40:07.450Z,76.03
2024-02-19T19:42:37.011Z,76.03
2024-02-19T19:45:08.525Z,76.17
2024-02-19T19:47:37.183Z,76.02
2024-02-19T19:50:07.110Z,76.49
2024-02-19T19:52:36.485Z,76.33
2024-02-19T19:55:05.629Z,76.32
2024-02-19T19:57:34.312Z,76.15
2024-02-19T20:00:02.873Z,76.46
2024-02-19T20:02:40.693Z,76.25
2024-02-19T20:05:12.564Z,76.72
2024-02-19T20:07:42.650Z,76.34
2024-02-19T20:10:15.199Z,76.74
2024-02-19T20:12:44.281Z,76.86
2024-02-19T20:15:14.299Z,76.41
2024-02-19T20:17:44.367Z,76.81
2024-02-19T20:20:13.312Z,77.33
2024-02-19T20:22:42.151Z,77.16
2024-02-19T20:25:11.689Z,77.51
2024-02-19T20:27:40.493Z,77.53
2024-02-19T20:30:12.284Z,77.36
2024-02-19T20:32:41.260Z,77.53
2024-02-19T20:35:11.617Z,77.55
2024-02-19T20:37:40.589Z,77.42
2024-02-19T20:40:10.855Z,77.79
2024-02-19T20:42:39.797Z,77.96
2024-02-19T20:45:09.186Z,78.12
2024-02-19T20:47:41.112Z,77.83
2024-02-19T20:50:13.612Z,77.79
2024-02-19T20:52:46.071Z,78.01
2024-02-19T20:55:15.291Z,78.00
2024-02-19T20:57:45.342Z,78.17
2024-02-19T21:00:14.675Z,78.46
2024-02-19T21:02:43.225Z,78.42
2024-02-19T21:05:14.925Z,78.83
2024-02-19T21:07:44.535Z,78.95
2024-02-19T21:10:14.641Z,78.82
2024-02-19T21:12:43.806Z,78.82
2024-02-19T21:15:12.492Z,79.15
2024-02-19T21:17:41.021Z,78.94
2024-02-19T21:20:12.135Z,79.22
2024-02-19T21:22:42.589Z,79.55
2024-02-19T21:25:11.777Z,79.84
2024-02-19T21:27:40.678Z,79.80
2024-02-19T21:30:10.468Z,79.71
2024-02-19T21:32:39.449Z,79.61
2024-02-19T21:35:11.724Z,79.64
2024-02-19T21:37:41.936Z,79.75
2024-02-19T21:40:11.857Z,79.41
2024-02-19T21:42:40.408Z,79.78
2024-02-19T21:45:10.706Z,79.51
2024-02-19T21:47:39.810Z,79.82
2024-02-19T21:50:10.967Z,79.95
2024-02-19T21:52:41.925Z,79.96
2024-02-19T21:55:11.393Z,80.12
2024-02-19T21:57:39.945Z,79.79
2024-02-19T22:00:12.111Z,79.75
2024-02-19T22:02:41.167Z,80.09
2024-02-19T22:05:10.476Z,80.22
2024-02-19T22:07:42.361Z,80.47
2024-02-19T22:10:12.236Z,79.96
2024-02-19T22:12:41.936Z,80.22
2024-02-19T22:15:11.901Z,80.43
2024-02-19T22:17:40.568Z,79.73
2024-02-19T22:20:10.884Z,80.45
2024-02-19T22:22:40.692Z,79.95
2024-02-19T22:25:11.154Z,80.50
2024-02-19T22:27:39.841Z,80.36
2024-02-19T22:30:09.541Z,80.05
2024-02-19T22:32:38.274Z,80.48
2024-02-19T22:35:09.299Z,80.41
2024-02-19T22:37:38.150Z,79.89
2024-02-19T22:40:08.238Z,80.12
2024-02-19T22:42:38.363Z,80.22
2024-02-19T22:45:08.267Z,80.44
2024-02-19T22:47:38.132Z,80.69
2024-02-19T22:50:08.617Z,80.44
2024-02-19T22:52:39.710Z,80.39
2024-02-19T22:55:10.439Z,80.67
2024-02-19T22:57:40.587Z,80.30
2024-02-19T23:00:24.045Z,80.35
2024-02-19T23:02:52.680Z,80.61
2024-02-19T23:05:21.604Z,80.25
2024-02-19T23:07:50.441Z,80.50
2024-02-19T23:10:19.035Z,80.38
2024-02-19T23:12:49.086Z,80.17
2024-02-19T23:15:17.740Z,80.76
2024-02-19T23:17:46.508Z,80.77
2024-02-19T23:20:15.858Z,80.30
2024-02-19T23:22:47.271Z,80.40
2024-02-19T23:25:16.272Z,80.43
2024-02-19T23:27:46.369Z,80.79
2024-02-19T23:30:16.616Z,80.76
2024-02-19T23:32:45.338Z,80.78
2024-02-19T23:35:14.060Z,80.52
2024-02-19T23:37:42.638Z,80.70
2024-02-19T23:40:18.291Z,80.70
2024-02-19T23:42:51.712Z,80.83
2024-02-19T23:45:21.900Z,80.83
2024-02-19T23:47:50.562Z,80.89
2024-02-19T23:50:19.293Z,80.96
2024-02-19T23:52:47.932Z,80.74
2024-02-19T23:55:18.176Z,80.76
2024-02-19T23:57:46.914Z,80.91
